createdAt,value
2023-06-11T00:00:17.928Z,118.93
2023-06-11T00:01:17.954Z,115.03
2023-06-11T00:02:18.109Z,118.38
2023-06-11T00:03:18.215Z,119.78
2023-06-11T00:04:18.156Z,117.88
2023-06-11T00:05:18.152Z,119.31
2023-06-11T00:06:18.172Z,118.68
2023-06-11T00:07:18.252Z,119.68
2023-06-11T00:08:18.263Z,119.41
2023-06-11T00:09:18.284Z,121.00
2023-06-11T00:10:18.349Z,121.14
2023-06-11T00:11:18.506Z,119.57
2023-06-11T00:12:18.424Z,118.24
2023-06-11T00:13:18.477Z,119.39
2023-06-11T00:14:18.500Z,117.97
2023-06-11T00:15:18.576Z,120.79
2023-06-11T00:16:18.706Z,120.73
2023-06-11T00:17:18.650Z,121.26
2023-06-11T00:18:18.700Z,121.25
2023-06-11T00:19:18.732Z,120.57
2023-06-11T00:20:18.760Z,120.71
2023-06-11T00:21:18.819Z,121.55
2023-06-11T00:22:18.885Z,119.98
2023-06-11T00:23:18.935Z,119.97
2023-06-11T00:24:19.120Z,118.31
2023-06-11T00:25:19.036Z,120.97
2023-06-11T00:26:19.102Z,120.93
2023-06-11T00:27:19.114Z,120.03
2023-06-11T00:28:19.141Z,119.42
2023-06-11T00:29:19.187Z,118.80
2023-06-11T00:30:19.320Z,119.00
2023-06-11T00:31:19.388Z,115.18
2023-06-11T00:32:19.329Z,117.85
2023-06-11T00:33:19.371Z,117.66
2023-06-11T00:34:19.412Z,113.56
2023-06-11T00:35:19.498Z,113.54
2023-06-11T00:36:19.540Z,113.10
2023-06-11T00:37:19.573Z,112.97
2023-06-11T00:38:20.871Z,113.41
2023-06-11T00:39:19.629Z,115.83
2023-06-11T00:40:19.723Z,113.72
2023-06-11T00:41:19.738Z,113.56
2023-06-11T00:42:19.813Z,116.34
2023-06-11T00:43:19.844Z,116.36
2023-06-11T00:44:19.891Z,114.99
2023-06-11T00:45:19.923Z,114.41
2023-06-11T00:46:20.136Z,115.33
2023-06-11T00:47:20.050Z,115.98
2023-06-11T00:48:20.088Z,114.79
2023-06-11T00:49:21.682Z,115.80
2023-06-11T00:50:20.197Z,115.16
2023-06-11T00:51:20.256Z,117.95
2023-06-11T00:52:20.283Z,116.11
2023-06-11T00:53:20.369Z,114.95
2023-06-11T00:54:20.420Z,115.11
2023-06-11T00:55:20.441Z,114.95
2023-06-11T00:56:20.593Z,114.75
2023-06-11T00:57:20.552Z,114.42
2023-06-11T00:58:20.690Z,115.34
2023-06-11T00:59:20.660Z,114.69
2023-06-11T01:00:20.721Z,115.11
2023-06-11T01:01:20.821Z,115.13
2023-06-11T01:02:20.876Z,113.59
2023-06-11T01:03:20.870Z,112.61
2023-06-11T01:04:20.990Z,113.92
2023-06-11T01:05:21.052Z,113.92
2023-06-11T01:06:21.053Z,113.87
2023-06-11T01:07:21.109Z,114.52
2023-06-11T01:08:21.146Z,114.11
2023-06-11T01:09:21.226Z,114.48
2023-06-11T01:10:21.310Z,112.10
2023-06-11T01:11:21.341Z,112.65
2023-06-11T01:12:21.404Z,112.20
2023-06-11T01:13:21.427Z,112.18
2023-06-11T01:14:21.504Z,110.71
2023-06-11T01:15:21.542Z,110.28
2023-06-11T01:16:21.623Z,112.49
2023-06-11T01:17:21.752Z,112.83
2023-06-11T01:18:21.719Z,114.04
2023-06-11T01:19:21.790Z,111.84
2023-06-11T01:20:21.849Z,110.50
2023-06-11T01:21:21.896Z,111.07
2023-06-11T01:22:21.956Z,110.88
2023-06-11T01:23:22.067Z,112.97
2023-06-11T01:24:22.137Z,112.91
2023-06-11T01:25:22.154Z,113.04
2023-06-11T01:26:22.208Z,113.06
2023-06-11T01:27:22.265Z,111.69
2023-06-11T01:28:22.312Z,111.86
2023-06-11T01:29:22.366Z,113.21
2023-06-11T01:30:22.427Z,112.79
2023-06-11T01:31:22.484Z,111.64
2023-06-11T01:32:22.576Z,112.56
2023-06-11T01:33:22.606Z,112.85
2023-06-11T01:34:22.720Z,112.29
2023-06-11T01:35:22.736Z,111.07
2023-06-11T01:36:22.811Z,112.43
2023-06-11T01:37:22.849Z,113.85
2023-06-11T01:38:22.920Z,112.28
2023-06-11T01:39:22.991Z,113.43
2023-06-11T01:40:23.047Z,113.50
2023-06-11T01:41:23.094Z,114.11
2023-06-11T01:42:23.194Z,112.21
2023-06-11T01:43:24.164Z,113.43
2023-06-11T01:44:23.305Z,111.74
2023-06-11T01:45:23.331Z,112.64
2023-06-11T01:46:23.455Z,111.93
2023-06-11T01:47:23.556Z,113.46
2023-06-11T01:48:23.542Z,110.97
2023-06-11T01:49:23.576Z,111.91
2023-06-11T01:50:23.672Z,111.80
2023-06-11T01:51:23.722Z,111.81
2023-06-11T01:52:23.783Z,111.14
2023-06-11T01:53:23.812Z,110.20
2023-06-11T01:54:23.909Z,114.44
2023-06-11T01:55:23.965Z,111.84
2023-06-11T01:56:23.996Z,111.36
2023-06-11T01:57:24.077Z,111.94
2023-06-11T01:58:24.171Z,110.88
2023-06-11T01:59:24.217Z,111.55
2023-06-11T02:00:24.295Z,110.61
2023-06-11T02:01:24.396Z,111.11
2023-06-11T02:02:24.518Z,114.13
2023-06-11T02:03:24.571Z,111.74
2023-06-11T02:04:24.536Z,111.95
2023-06-11T02:05:24.602Z,112.83
2023-06-11T02:06:24.650Z,113.42
2023-06-11T02:07:24.693Z,110.56
2023-06-11T02:08:24.783Z,111.88
2023-06-11T02:09:24.833Z,111.32
2023-06-11T02:10:24.895Z,111.30
2023-06-11T02:11:24.927Z,113.56
2023-06-11T02:12:25.033Z,113.15
2023-06-11T02:13:25.111Z,110.25
2023-06-11T02:14:25.167Z,111.80
2023-06-11T02:15:25.221Z,111.65
2023-06-11T02:16:25.326Z,110.83
2023-06-11T02:17:25.364Z,111.51
2023-06-11T02:18:25.395Z,112.03
2023-06-11T02:19:25.479Z,113.68
2023-06-11T02:20:25.542Z,111.58
2023-06-11T02:21:25.594Z,111.37
2023-06-11T02:22:25.655Z,111.22
2023-06-11T02:23:25.692Z,110.56
2023-06-11T02:24:25.771Z,112.30
2023-06-11T02:25:25.826Z,114.53
2023-06-11T02:26:25.872Z,111.74
2023-06-11T02:27:25.967Z,113.92
2023-06-11T02:28:26.034Z,111.43
2023-06-11T02:29:26.053Z,110.89
2023-06-11T02:30:26.153Z,112.97
2023-06-11T02:31:26.320Z,113.22
2023-06-11T02:32:26.356Z,111.53
2023-06-11T02:33:26.309Z,111.82
2023-06-11T02:34:26.389Z,110.72
2023-06-11T02:35:26.433Z,111.23
2023-06-11T02:36:26.531Z,111.71
2023-06-11T02:37:26.635Z,110.86
2023-06-11T02:38:26.635Z,110.88
2023-06-11T02:39:26.701Z,111.19
2023-06-11T02:40:26.768Z,112.05
2023-06-11T02:41:26.813Z,110.57
2023-06-11T02:42:26.874Z,113.10
2023-06-11T02:43:26.908Z,110.57
2023-06-11T02:44:26.967Z,112.17
2023-06-11T02:45:27.052Z,111.78
2023-06-11T02:46:27.117Z,111.07
2023-06-11T02:47:27.211Z,110.39
2023-06-11T02:48:27.188Z,111.15
2023-06-11T02:49:27.243Z,108.95
2023-06-11T02:50:27.369Z,111.40
2023-06-11T02:51:27.380Z,109.79
2023-06-11T02:52:27.445Z,113.62
2023-06-11T02:53:27.515Z,111.44
2023-06-11T02:54:27.562Z,111.74
2023-06-11T02:55:27.632Z,110.77
2023-06-11T02:56:27.665Z,111.09
2023-06-11T02:57:27.737Z,109.88
2023-06-11T02:58:27.843Z,108.94
2023-06-11T02:59:27.894Z,111.16
2023-06-11T03:00:27.948Z,112.38
2023-06-11T03:01:28.016Z,109.88
2023-06-11T03:02:28.094Z,113.53
2023-06-11T03:03:28.093Z,112.80
2023-06-11T03:04:28.172Z,109.54
2023-06-11T03:05:28.213Z,111.94
2023-06-11T03:06:28.251Z,111.57
2023-06-11T03:07:28.335Z,112.28
2023-06-11T03:08:28.404Z,109.93
2023-06-11T03:09:28.463Z,113.18
2023-06-11T03:10:28.513Z,110.49
2023-06-11T03:11:28.565Z,109.55
2023-06-11T03:12:28.602Z,111.78
2023-06-11T03:13:28.676Z,111.26
2023-06-11T03:14:28.727Z,111.53
2023-06-11T03:15:28.809Z,110.28
2023-06-11T03:16:28.978Z,109.81
2023-06-11T03:17:28.971Z,110.76
2023-06-11T03:18:28.942Z,111.56
2023-06-11T03:19:29.021Z,113.30
2023-06-11T03:20:29.062Z,109.77
2023-06-11T03:21:29.120Z,112.33
2023-06-11T03:22:29.194Z,112.29
2023-06-11T03:23:29.263Z,110.17
2023-06-11T03:24:29.288Z,110.46
2023-06-11T03:25:29.335Z,110.82
2023-06-11T03:26:29.411Z,108.50
2023-06-11T03:27:29.491Z,109.30
2023-06-11T03:28:29.579Z,111.53
2023-06-11T03:29:29.617Z,109.38
2023-06-11T03:30:29.661Z,109.52
2023-06-11T03:31:29.771Z,109.18
2023-06-11T03:32:29.790Z,109.95
2023-06-11T03:33:29.872Z,109.95
2023-06-11T03:34:29.893Z,108.99
2023-06-11T03:35:29.986Z,107.97
2023-06-11T03:36:30.026Z,108.85
2023-06-11T03:37:30.048Z,108.78
2023-06-11T03:38:30.142Z,111.88
2023-06-11T03:39:30.171Z,107.91
2023-06-11T03:40:30.266Z,108.16
2023-06-11T03:41:30.281Z,110.66
2023-06-11T03:42:30.344Z,111.57
2023-06-11T03:43:30.444Z,112.37
2023-06-11T03:44:30.480Z,110.29
2023-06-11T03:45:30.541Z,107.77
2023-06-11T03:46:30.622Z,106.35
2023-06-11T03:47:30.670Z,108.55
2023-06-11T03:48:30.685Z,107.95
2023-06-11T03:49:30.747Z,108.32
2023-06-11T03:50:30.802Z,106.15
2023-06-11T03:51:30.871Z,106.66
2023-06-11T03:52:30.912Z,106.68
2023-06-11T03:53:31.034Z,107.49
2023-06-11T03:54:31.034Z,106.92
2023-06-11T03:55:31.133Z,107.63
2023-06-11T03:56:31.135Z,108.12
2023-06-11T03:57:31.223Z,107.93
2023-06-11T03:58:31.260Z,106.79
2023-06-11T03:59:31.327Z,108.49
2023-06-11T04:00:31.365Z,108.02
2023-06-11T04:01:31.451Z,107.91
2023-06-11T04:02:31.592Z,105.65
2023-06-11T04:03:31.733Z,106.78
2023-06-11T04:04:31.630Z,106.89
2023-06-11T04:05:31.690Z,106.61
2023-06-11T04:06:31.725Z,106.42
2023-06-11T04:07:31.769Z,107.90
2023-06-11T04:08:31.826Z,108.64
2023-06-11T04:09:31.905Z,106.08
2023-06-11T04:10:32.013Z,105.37
2023-06-11T04:11:32.022Z,104.52
2023-06-11T04:12:32.087Z,105.03
2023-06-11T04:13:32.124Z,108.31
2023-06-11T04:14:32.170Z,105.47
2023-06-11T04:15:32.240Z,107.88
2023-06-11T04:16:32.300Z,108.03
2023-06-11T04:17:32.328Z,107.06
2023-06-11T04:18:32.405Z,105.39
2023-06-11T04:19:32.443Z,107.99
2023-06-11T04:20:32.563Z,105.72
2023-06-11T04:21:32.564Z,105.01
2023-06-11T04:22:32.641Z,105.67
2023-06-11T04:23:32.726Z,106.40
2023-06-11T04:24:32.819Z,105.57
2023-06-11T04:25:32.913Z,104.39
2023-06-11T04:26:32.856Z,104.88
2023-06-11T04:27:32.912Z,101.85
2023-06-11T04:28:32.975Z,104.10
2023-06-11T04:29:33.007Z,102.50
2023-06-11T04:30:33.070Z,102.75
2023-06-11T04:31:33.152Z,103.66
2023-06-11T04:32:33.240Z,104.21
2023-06-11T04:33:33.241Z,105.56
2023-06-11T04:34:33.316Z,104.64
2023-06-11T04:35:33.390Z,103.81
2023-06-11T04:36:33.436Z,104.00
2023-06-11T04:37:33.516Z,106.43
2023-06-11T04:38:33.562Z,106.34
2023-06-11T04:39:33.608Z,105.25
2023-06-11T04:40:33.683Z,107.58
2023-06-11T04:41:33.751Z,103.00
2023-06-11T04:42:35.877Z,105.07
2023-06-11T04:43:33.864Z,101.96
2023-06-11T04:44:33.912Z,105.19
2023-06-11T04:45:33.973Z,104.75
2023-06-11T04:46:34.175Z,103.52
2023-06-11T04:47:34.116Z,104.45
2023-06-11T04:48:34.177Z,102.27
2023-06-11T04:49:34.199Z,103.28
2023-06-11T04:50:34.290Z,103.12
2023-06-11T04:51:34.563Z,100.67
2023-06-11T04:52:34.380Z,102.24
2023-06-11T04:53:34.483Z,100.55
2023-06-11T04:54:34.539Z,104.71
2023-06-11T04:55:34.573Z,101.80
2023-06-11T04:56:34.670Z,103.43
2023-06-11T04:57:34.694Z,103.03
2023-06-11T04:58:34.760Z,102.85
2023-06-11T04:59:34.830Z,102.82
2023-06-11T05:00:34.895Z,104.74
2023-06-11T05:01:34.984Z,103.69
2023-06-11T05:02:35.087Z,105.88
2023-06-11T05:03:35.097Z,103.50
2023-06-11T05:04:35.133Z,106.91
2023-06-11T05:05:35.262Z,104.98
2023-06-11T05:06:35.267Z,104.09
2023-06-11T05:07:35.385Z,103.82
2023-06-11T05:08:35.403Z,105.55
2023-06-11T05:09:35.443Z,103.30
2023-06-11T05:10:35.562Z,102.61
2023-06-11T05:11:35.597Z,104.90
2023-06-11T05:12:35.678Z,102.63
2023-06-11T05:13:35.716Z,103.26
2023-06-11T05:14:35.793Z,104.28
2023-06-11T05:15:35.835Z,103.43
2023-06-11T05:16:35.946Z,101.83
2023-06-11T05:17:35.963Z,103.05
2023-06-11T05:18:36.043Z,101.35
2023-06-11T05:19:36.073Z,102.27
2023-06-11T05:20:36.108Z,102.24
2023-06-11T05:21:36.155Z,103.73
2023-06-11T05:22:36.252Z,102.37
2023-06-11T05:23:36.317Z,103.76
2023-06-11T05:24:36.348Z,102.91
2023-06-11T05:25:36.456Z,103.88
2023-06-11T05:26:36.466Z,105.07
2023-06-11T05:27:36.551Z,104.48
2023-06-11T05:28:36.589Z,103.74
2023-06-11T05:29:36.667Z,103.81
2023-06-11T05:30:36.714Z,100.56
2023-06-11T05:31:36.840Z,101.22
2023-06-11T05:32:36.882Z,101.40
2023-06-11T05:33:36.916Z,102.34
2023-06-11T05:34:36.982Z,101.91
2023-06-11T05:35:37.055Z,100.60
2023-06-11T05:36:37.093Z,102.42
2023-06-11T05:37:37.128Z,102.37
2023-06-11T05:38:37.224Z,102.58
2023-06-11T05:39:37.245Z,101.32
2023-06-11T05:40:37.327Z,102.13
2023-06-11T05:41:37.396Z,102.68
2023-06-11T05:42:37.425Z,103.74
2023-06-11T05:43:37.495Z,103.86
2023-06-11T05:44:37.627Z,103.11
2023-06-11T05:45:37.637Z,102.72
2023-06-11T05:46:37.755Z,102.66
2023-06-11T05:47:37.798Z,103.37
2023-06-11T05:48:37.792Z,102.19
2023-06-11T05:49:37.874Z,103.25
2023-06-11T05:50:37.938Z,101.56
2023-06-11T05:51:37.981Z,103.72
2023-06-11T05:52:38.040Z,102.78
2023-06-11T05:53:38.121Z,101.96
2023-06-11T05:54:38.131Z,104.41
2023-06-11T05:55:38.215Z,103.03
2023-06-11T05:56:38.284Z,103.58
2023-06-11T05:57:38.330Z,105.67
2023-06-11T05:58:38.419Z,104.68
2023-06-11T05:59:38.431Z,104.02
2023-06-11T06:00:38.503Z,102.79
2023-06-11T06:01:38.562Z,103.99
2023-06-11T06:02:38.666Z,103.93
2023-06-11T06:03:38.826Z,102.69
2023-06-11T06:04:38.782Z,103.73
2023-06-11T06:05:38.817Z,102.98
2023-06-11T06:06:38.818Z,103.97
2023-06-11T06:07:38.893Z,103.31
2023-06-11T06:08:38.964Z,103.67
2023-06-11T06:09:39.004Z,104.13
2023-06-11T06:10:39.094Z,105.24
2023-06-11T06:11:39.138Z,104.96
2023-06-11T06:12:39.196Z,103.75
2023-06-11T06:13:39.227Z,103.59
2023-06-11T06:14:39.325Z,104.39
2023-06-11T06:15:39.359Z,104.00
2023-06-11T06:16:39.447Z,104.83
2023-06-11T06:17:39.461Z,106.36
2023-06-11T06:18:39.546Z,107.29
2023-06-11T06:19:39.539Z,105.70
2023-06-11T06:20:39.639Z,104.58
2023-06-11T06:21:39.660Z,104.03
2023-06-11T06:22:39.728Z,105.23
2023-06-11T06:23:39.827Z,106.66
2023-06-11T06:24:39.806Z,105.62
2023-06-11T06:25:39.925Z,105.19
2023-06-11T06:26:39.928Z,106.81
2023-06-11T06:27:39.974Z,106.72
2023-06-11T06:28:40.031Z,106.22
2023-06-11T06:29:40.152Z,106.85
2023-06-11T06:30:40.161Z,108.76
2023-06-11T06:31:40.249Z,107.61
2023-06-11T06:32:40.503Z,109.86
2023-06-11T06:33:40.327Z,110.04
2023-06-11T06:34:40.362Z,108.92
2023-06-11T06:35:40.463Z,106.30
2023-06-11T06:36:40.462Z,104.31
2023-06-11T06:37:40.536Z,104.90
2023-06-11T06:38:40.546Z,103.26
2023-06-11T06:39:40.608Z,107.34
2023-06-11T06:40:40.667Z,105.41
2023-06-11T06:41:40.731Z,103.83
2023-06-11T06:42:40.761Z,102.28
2023-06-11T06:43:40.805Z,103.25
2023-06-11T06:44:40.876Z,106.34
2023-06-11T06:45:40.932Z,109.33
2023-06-11T06:46:41.806Z,109.98
2023-06-11T06:47:41.097Z,110.17
2023-06-11T06:48:41.152Z,110.04
2023-06-11T06:49:41.135Z,111.70
2023-06-11T06:50:41.152Z,109.89
2023-06-11T06:51:41.222Z,108.02
2023-06-11T06:52:41.272Z,109.92
2023-06-11T06:53:41.310Z,107.41
2023-06-11T06:54:41.366Z,107.86
2023-06-11T06:55:41.398Z,109.91
2023-06-11T06:56:41.479Z,110.05
2023-06-11T06:57:41.534Z,109.96
2023-06-11T06:58:41.539Z,111.37
2023-06-11T06:59:41.619Z,113.33
2023-06-11T07:00:41.636Z,116.29
2023-06-11T07:01:41.855Z,117.14
2023-06-11T07:02:41.878Z,116.00
2023-06-11T07:03:41.807Z,115.18
2023-06-11T07:04:41.843Z,113.14
2023-06-11T07:05:41.921Z,113.41
2023-06-11T07:06:41.922Z,116.14
2023-06-11T07:07:43.727Z,117.50
2023-06-11T07:08:42.025Z,118.45
2023-06-11T07:09:42.069Z,115.59
2023-06-11T07:10:42.098Z,114.63
2023-06-11T07:11:42.132Z,117.39
2023-06-11T07:12:42.198Z,115.24
2023-06-11T07:13:42.245Z,116.72
2023-06-11T07:14:42.283Z,118.51
2023-06-11T07:15:42.890Z,118.13
2023-06-11T07:16:42.357Z,114.96
2023-06-11T07:17:42.464Z,115.82
2023-06-11T07:18:42.501Z,116.32
2023-06-11T07:19:42.596Z,116.88
2023-06-11T07:20:42.614Z,117.48
2023-06-11T07:21:42.620Z,117.23
2023-06-11T07:22:42.687Z,117.25
2023-06-11T07:23:42.789Z,112.09
2023-06-11T07:24:42.774Z,114.44
2023-06-11T07:25:42.832Z,116.78
2023-06-11T07:26:42.871Z,116.36
2023-06-11T07:27:42.925Z,113.86
2023-06-11T07:28:42.998Z,112.95
2023-06-11T07:29:43.002Z,110.52
2023-06-11T07:30:43.048Z,110.85
2023-06-11T07:31:43.145Z,108.04
2023-06-11T07:32:43.266Z,112.78
2023-06-11T07:33:43.170Z,109.51
2023-06-11T07:34:43.235Z,109.12
2023-06-11T07:35:43.273Z,107.91
2023-06-11T07:36:43.297Z,110.43
2023-06-11T07:37:43.313Z,109.61
2023-06-11T07:38:43.384Z,109.82
2023-06-11T07:39:43.437Z,110.78
2023-06-11T07:40:43.448Z,110.14
2023-06-11T07:41:43.478Z,112.05
2023-06-11T07:42:43.567Z,112.27
2023-06-11T07:43:43.607Z,111.31
2023-06-11T07:44:43.575Z,111.33
2023-06-11T07:45:43.618Z,112.79
2023-06-11T07:46:43.682Z,112.95
2023-06-11T07:47:43.723Z,113.69
2023-06-11T07:48:43.736Z,107.25
2023-06-11T07:49:43.744Z,109.07
2023-06-11T07:50:43.780Z,108.96
2023-06-11T07:51:43.805Z,106.61
2023-06-11T07:52:43.879Z,110.22
2023-06-11T07:53:43.923Z,109.62
2023-06-11T07:54:43.916Z,112.33
2023-06-11T07:55:43.964Z,113.09
2023-06-11T07:56:43.986Z,108.35
2023-06-11T07:57:44.001Z,106.74
2023-06-11T07:58:44.060Z,106.74
2023-06-11T07:59:44.092Z,109.79
2023-06-11T08:00:44.097Z,108.36
2023-06-11T08:01:44.191Z,108.42
2023-06-11T08:02:44.290Z,109.68
2023-06-11T08:03:44.181Z,109.35
2023-06-11T08:04:44.229Z,109.68
2023-06-11T08:05:44.287Z,110.88
2023-06-11T08:06:44.282Z,113.79
2023-06-11T08:07:44.315Z,111.64
2023-06-11T08:08:44.334Z,111.87
2023-06-11T08:09:44.345Z,109.58
2023-06-11T08:10:44.372Z,106.16
2023-06-11T08:11:44.414Z,103.95
2023-06-11T08:12:44.403Z,104.82
2023-06-11T08:13:44.454Z,107.15
2023-06-11T08:14:44.491Z,101.60
2023-06-11T08:15:44.505Z,102.04
2023-06-11T08:16:44.526Z,102.29
2023-06-11T08:17:44.582Z,101.43
2023-06-11T08:18:44.599Z,103.82
2023-06-11T08:19:44.588Z,105.61
2023-06-11T08:20:44.651Z,104.16
2023-06-11T08:21:44.623Z,100.71
2023-06-11T08:22:44.684Z,98.55
2023-06-11T08:23:44.728Z,99.57
2023-06-11T08:24:44.736Z,101.45
2023-06-11T08:25:44.758Z,101.52
2023-06-11T08:26:44.787Z,104.55
2023-06-11T08:27:44.797Z,105.96
2023-06-11T08:28:44.851Z,107.03
2023-06-11T08:29:44.845Z,105.28
2023-06-11T08:30:44.880Z,103.12
2023-06-11T08:31:44.983Z,105.34
2023-06-11T08:32:44.967Z,102.30
2023-06-11T08:33:44.929Z,102.57
2023-06-11T08:34:45.000Z,104.50
2023-06-11T08:35:44.981Z,102.07
2023-06-11T08:36:45.010Z,100.63
2023-06-11T08:37:45.013Z,101.80
2023-06-11T08:38:45.034Z,104.08
2023-06-11T08:39:45.069Z,102.56
2023-06-11T08:40:45.085Z,103.56
2023-06-11T08:41:45.077Z,102.00
2023-06-11T08:42:45.101Z,102.88
2023-06-11T08:43:45.137Z,104.59
2023-06-11T08:44:45.128Z,104.09
2023-06-11T08:45:45.173Z,100.91
2023-06-11T08:47:45.302Z,99.71
2023-06-11T08:48:45.211Z,101.13
2023-06-11T08:49:45.237Z,100.93
2023-06-11T08:50:45.245Z,98.41
2023-06-11T08:51:45.292Z,96.88
2023-06-11T08:52:45.281Z,97.18
2023-06-11T08:53:45.316Z,95.19
2023-06-11T08:54:45.351Z,94.65
2023-06-11T08:55:45.357Z,94.23
2023-06-11T08:56:45.398Z,95.66
2023-06-11T08:57:45.384Z,94.44
2023-06-11T08:58:45.406Z,96.62
2023-06-11T08:59:45.424Z,91.48
2023-06-11T09:00:48.502Z,94.24
2023-06-11T09:01:45.572Z,98.48
2023-06-11T09:02:45.551Z,96.98
2023-06-11T09:03:45.474Z,95.31
2023-06-11T09:04:45.392Z,98.91
2023-06-11T09:05:45.430Z,97.91
2023-06-11T09:06:45.397Z,98.00
2023-06-11T09:07:45.407Z,94.60
2023-06-11T09:08:45.412Z,95.01
2023-06-11T09:09:45.382Z,95.71
2023-06-11T09:10:45.368Z,93.90
2023-06-11T09:11:45.351Z,89.09
2023-06-11T09:12:45.379Z,88.23
2023-06-11T09:13:45.379Z,88.96
2023-06-11T09:14:45.346Z,89.35
2023-06-11T09:15:45.327Z,89.77
2023-06-11T09:16:45.473Z,91.47
2023-06-11T09:17:45.349Z,87.79
2023-06-11T09:18:45.337Z,89.65
2023-06-11T09:19:45.304Z,88.71
2023-06-11T09:20:45.285Z,90.83
2023-06-11T09:21:45.305Z,87.94
2023-06-11T09:22:45.310Z,87.71
2023-06-11T09:23:45.293Z,86.46
2023-06-11T09:24:45.304Z,85.02
2023-06-11T09:25:45.267Z,84.32
2023-06-11T09:26:45.280Z,83.74
2023-06-11T09:27:45.269Z,86.19
2023-06-11T09:28:46.722Z,84.82
2023-06-11T09:29:45.475Z,84.95
2023-06-11T09:30:45.431Z,85.69
2023-06-11T09:31:45.525Z,85.25
2023-06-11T09:32:45.642Z,85.23
2023-06-11T09:33:45.456Z,87.16
2023-06-11T09:34:45.491Z,94.31
2023-06-11T09:35:45.462Z,90.46
2023-06-11T09:36:45.469Z,92.56
2023-06-11T09:37:45.445Z,93.75
2023-06-11T09:38:45.479Z,91.70
2023-06-11T09:39:45.434Z,91.23
2023-06-11T09:40:45.468Z,86.06
2023-06-11T09:41:45.457Z,90.46
2023-06-11T09:42:45.448Z,89.93
2023-06-11T09:43:45.439Z,87.10
2023-06-11T09:44:45.427Z,83.51
2023-06-11T09:45:45.517Z,84.24
2023-06-11T09:46:45.461Z,85.21
2023-06-11T09:47:45.487Z,85.72
2023-06-11T09:48:45.469Z,83.96
2023-06-11T09:49:45.435Z,86.55
2023-06-11T09:50:45.453Z,89.35
2023-06-11T09:51:45.455Z,87.37
2023-06-11T09:52:45.480Z,86.76
2023-06-11T09:53:45.422Z,85.88
2023-06-11T09:54:45.451Z,83.68
2023-06-11T09:55:57.143Z,83.67
2023-06-11T09:56:46.424Z,83.90
2023-06-11T09:57:45.425Z,84.47
2023-06-11T09:58:45.394Z,85.65
2023-06-11T09:59:45.391Z,85.80
2023-06-11T10:00:45.393Z,85.19
2023-06-11T10:01:45.400Z,84.62
2023-06-11T10:02:45.468Z,86.87
2023-06-11T10:03:45.423Z,87.55
2023-06-11T10:04:45.368Z,87.70
2023-06-11T10:05:45.389Z,88.56
2023-06-11T10:06:45.327Z,87.83
2023-06-11T10:07:45.369Z,86.17
2023-06-11T10:08:45.347Z,87.11
2023-06-11T10:09:45.325Z,86.62
2023-06-11T10:10:45.324Z,89.38
2023-06-11T10:11:45.338Z,87.26
2023-06-11T10:12:45.300Z,86.48
2023-06-11T10:13:45.308Z,87.01
2023-06-11T10:14:45.296Z,86.33
2023-06-11T10:15:45.296Z,83.57
2023-06-11T10:16:45.278Z,85.30
2023-06-11T10:17:45.280Z,85.21
2023-06-11T10:18:45.258Z,85.62
2023-06-11T10:19:45.256Z,85.63
2023-06-11T10:20:45.281Z,86.84
2023-06-11T10:21:45.278Z,85.49
2023-06-11T10:22:45.241Z,86.16
2023-06-11T10:23:45.308Z,87.99
2023-06-11T10:24:45.230Z,88.22
2023-06-11T10:25:45.217Z,83.70
2023-06-11T10:26:45.263Z,85.43
2023-06-11T10:27:45.235Z,86.37
2023-06-11T10:28:45.219Z,85.48
2023-06-11T10:29:45.217Z,85.82
2023-06-11T10:30:45.205Z,84.62
2023-06-11T10:31:45.206Z,82.68
2023-06-11T10:32:45.904Z,85.19
2023-06-11T10:33:45.243Z,85.96
2023-06-11T10:34:45.248Z,87.14
2023-06-11T10:35:45.177Z,85.48
2023-06-11T10:36:45.195Z,84.53
2023-06-11T10:37:45.195Z,83.73
2023-06-11T10:38:45.156Z,85.86
2023-06-11T10:39:45.149Z,83.93
2023-06-11T10:40:45.192Z,86.51
2023-06-11T10:41:45.151Z,89.67
2023-06-11T10:42:45.197Z,86.96
2023-06-11T10:43:45.204Z,86.54
2023-06-11T10:44:45.222Z,86.53
2023-06-11T10:45:47.819Z,85.34
2023-06-11T10:46:45.314Z,85.50
2023-06-11T10:47:45.233Z,85.17
2023-06-11T10:48:45.283Z,86.08
2023-06-11T10:49:45.222Z,85.06
2023-06-11T10:50:45.189Z,85.48
2023-06-11T10:51:45.181Z,84.57
2023-06-11T10:52:45.199Z,87.06
2023-06-11T10:53:45.170Z,84.60
2023-06-11T10:54:45.189Z,86.28
2023-06-11T10:55:45.186Z,85.49
2023-06-11T10:56:45.160Z,84.60
2023-06-11T10:57:45.179Z,83.73
2023-06-11T10:58:45.138Z,78.39
2023-06-11T10:59:45.149Z,79.54
2023-06-11T11:00:45.139Z,79.30
2023-06-11T11:01:45.159Z,85.30
2023-06-11T11:02:45.219Z,86.04
2023-06-11T11:03:45.173Z,87.34
2023-06-11T11:04:45.075Z,83.89
2023-06-11T11:05:45.114Z,80.75
2023-06-11T11:06:45.080Z,80.46
2023-06-11T11:07:45.071Z,83.65
2023-06-11T11:08:45.083Z,65.52
2023-06-11T11:09:45.076Z,56.08
2023-06-11T11:10:45.089Z,51.40
2023-06-11T11:11:45.076Z,43.14
2023-06-11T11:12:45.027Z,50.00
2023-06-11T11:13:45.035Z,56.48
2023-06-11T11:14:45.041Z,50.00
2023-06-11T11:15:45.051Z,51.03
2023-06-11T11:16:45.034Z,56.18
2023-06-11T11:17:45.074Z,57.70
2023-06-11T11:18:45.017Z,58.12
2023-06-11T11:19:45.006Z,64.60
2023-06-11T11:20:45.021Z,67.44
2023-06-11T11:21:44.980Z,65.57
2023-06-11T11:22:44.975Z,59.51
2023-06-11T11:23:44.997Z,57.40
2023-06-11T11:24:44.963Z,51.44
2023-06-11T11:25:44.951Z,51.69
2023-06-11T11:26:44.981Z,51.40
2023-06-11T11:27:44.975Z,53.21
2023-06-11T11:28:44.946Z,55.12
2023-06-11T11:29:44.962Z,52.68
2023-06-11T11:30:44.951Z,60.43
2023-06-11T11:31:44.981Z,61.57
2023-06-11T11:32:44.935Z,59.17
2023-06-11T11:33:44.909Z,58.00
2023-06-11T11:34:44.874Z,59.40
2023-06-11T11:35:44.893Z,62.46
2023-06-11T11:36:44.857Z,63.71
2023-06-11T11:37:44.859Z,66.38
2023-06-11T11:38:44.860Z,66.43
2023-06-11T11:39:44.867Z,69.30
2023-06-11T11:40:44.852Z,68.98
2023-06-11T11:41:44.858Z,66.59
2023-06-11T11:42:44.852Z,68.92
2023-06-11T11:43:44.866Z,70.66
2023-06-11T11:44:44.922Z,76.25
2023-06-11T11:45:44.919Z,76.24
2023-06-11T11:46:45.011Z,75.26
2023-06-11T11:47:44.992Z,68.77
2023-06-11T11:48:44.921Z,65.10
2023-06-11T11:49:44.943Z,73.27
2023-06-11T11:50:44.931Z,74.00
2023-06-11T11:51:44.957Z,78.39
2023-06-11T11:52:44.934Z,77.62
2023-06-11T11:53:44.940Z,74.47
2023-06-11T11:54:44.947Z,80.76
2023-06-11T11:56:00.349Z,83.06
2023-06-11T11:56:45.954Z,83.28
2023-06-11T11:57:44.931Z,82.73
2023-06-11T11:58:44.903Z,81.30
2023-06-11T11:59:44.923Z,83.55
2023-06-11T12:00:45.011Z,89.41
2023-06-11T12:01:44.890Z,88.29
2023-06-11T12:02:44.997Z,88.39
2023-06-11T12:03:44.923Z,85.68
2023-06-11T12:04:44.849Z,87.54
2023-06-11T12:05:44.892Z,91.70
2023-06-11T12:06:44.863Z,90.35
2023-06-11T12:07:44.888Z,89.70
2023-06-11T12:08:44.816Z,92.25
2023-06-11T12:09:44.842Z,95.08
2023-06-11T12:10:44.843Z,95.93
2023-06-11T12:12:00.130Z,98.66
2023-06-11T12:12:45.876Z,98.82
2023-06-11T12:13:44.873Z,98.92
2023-06-11T12:14:44.856Z,100.42
2023-06-11T12:15:44.830Z,104.00
2023-06-11T12:16:44.871Z,106.53
2023-06-11T12:17:44.840Z,103.65
2023-06-11T12:18:44.833Z,104.46
2023-06-11T12:19:44.817Z,110.38
2023-06-11T12:20:44.840Z,105.72
2023-06-11T12:21:45.886Z,106.01
2023-06-11T12:22:44.805Z,106.17
2023-06-11T12:23:44.857Z,105.80
2023-06-11T12:24:44.835Z,110.10
2023-06-11T12:25:44.795Z,106.37
2023-06-11T12:26:44.776Z,109.13
2023-06-11T12:27:44.750Z,110.79
2023-06-11T12:28:44.743Z,108.63
2023-06-11T12:29:44.752Z,110.56
2023-06-11T12:30:44.741Z,114.17
2023-06-11T12:31:44.799Z,115.18
2023-06-11T12:32:44.775Z,118.97
2023-06-11T12:33:44.785Z,124.30
2023-06-11T12:34:44.886Z,123.56
2023-06-11T12:35:44.955Z,121.45